Weather Data

Pearl Creek Farm: 8878 N Farm Road 75, Walnut Grove MO 65770

<== Previous Day (Friday 01 Aug 2008) | Next Day (Sunday 03 Aug 2008) ==>

Summary Precipitation Data For Saturday 02 August 2008

ElementValueUnits
PrecipitationT
Notes(none)
SourceSpringfield-Branson National Airport (SGF)

Summary Temperature Data For Saturday 02 August 2008

ElementValueUnits
High Temperature96 oF
Low Temperature74 oF
Average Temperature85 oF
High Humidity94 %
Low Humidity44 %
Average Humidity70 %
SourceSpringfield-Branson National Airport (SGF)

Detail Temperature Data For Saturday 02 August 2008

Date / TimeTemp (F)RH (%)Dew Pt (F)Report Date / TimeSource
2008-08-02 03:52:00 74 94 72.0 2017-12-29 19:14:24.89625 Springfield-Branson National Airport (SGF)
2008-08-02 04:52:00 74 94 72.0 2017-12-29 19:14:24.89625 Springfield-Branson National Airport (SGF)
2008-08-02 05:52:00 76 91 73.0 2017-12-29 19:14:24.89625 Springfield-Branson National Airport (SGF)
2008-08-02 06:52:00 80 85 75.0 2017-12-29 19:14:24.89625 Springfield-Branson National Airport (SGF)
2008-08-02 07:52:00 84 74 75.0 2017-12-29 19:14:24.89625 Springfield-Branson National Airport (SGF)
2008-08-02 11:52:00 94 48 71.0 2017-12-29 19:14:24.89625 Springfield-Branson National Airport (SGF)
2008-08-02 13:52:00 94 49 72.0 2017-12-29 19:14:24.89625 Springfield-Branson National Airport (SGF)
2008-08-02 14:52:00 95 46 71.0 2017-12-29 19:14:24.89625 Springfield-Branson National Airport (SGF)
2008-08-02 15:52:00 96 44 71.0 2017-12-29 19:14:24.89625 Springfield-Branson National Airport (SGF)
2008-08-02 00:52:00 76 91 73.0 2017-12-29 19:14:24.89625 Springfield-Branson National Airport (SGF)
2008-08-02 01:52:00 76 88 72.0 2017-12-29 19:14:24.89625 Springfield-Branson National Airport (SGF)
2008-08-02 02:52:00 75 90 72.0 2017-12-29 19:14:24.89625 Springfield-Branson National Airport (SGF)
2008-08-02 08:52:00 86 67 74.0 2017-12-29 19:14:24.89625 Springfield-Branson National Airport (SGF)
2008-08-02 09:52:00 89 57 72.0 2017-12-29 19:14:24.89625 Springfield-Branson National Airport (SGF)
2008-08-02 10:52:00 91 57 74.0 2017-12-29 19:14:24.89625 Springfield-Branson National Airport (SGF)
2008-08-02 12:52:00 95 47 72.0 2017-12-29 19:14:24.89625 Springfield-Branson National Airport (SGF)
2008-08-02 16:52:00 95 44 70.0 2017-12-29 19:14:24.89625 Springfield-Branson National Airport (SGF)
2008-08-02 17:52:00 93 49 71.0 2017-12-29 19:14:24.89625 Springfield-Branson National Airport (SGF)
2008-08-02 18:52:00 89 61 74.0 2017-12-29 19:14:24.89625 Springfield-Branson National Airport (SGF)
2008-08-02 19:52:00 84 72 74.0 2017-12-29 19:14:24.89625 Springfield-Branson National Airport (SGF)
2008-08-02 20:52:00 82 77 74.0 2017-12-29 19:14:24.89625 Springfield-Branson National Airport (SGF)
2008-08-02 21:52:00 80 82 74.0 2017-12-29 19:14:24.89625 Springfield-Branson National Airport (SGF)
2008-08-02 22:52:00 79 85 74.0 2017-12-29 19:14:24.89625 Springfield-Branson National Airport (SGF)
2008-08-02 23:52:00 78 87 74.0 2017-12-29 19:14:24.89625 Springfield-Branson National Airport (SGF)

A total of 24 rows are displayed.